Wetterdaten: Woche 13.10.25 - 19.10.25 (KW42)
Datum Zeit Temp. I. Temp. A. Feuchte I. Feuchte A. Luftdruck Regen Wind Richtung Sonnenschein Solar Taupunkt Windchill Windböen
13.10.2025 00:00 23,4 °C 13,5 °C 56 % 90 % 1026,3 hPa 0,0 l/m² 2,1 km/h (1 Bft) W 0,00 h 0 W/m² 11,9 °C 13,5 °C 5,2 km/h (1 Bft)
13.10.2025 01:00 23,3 °C 13,4 °C 57 % 91 % 1026,1 hPa 0,0 l/m² 2,1 km/h (1 Bft) W-NW 0,00 h 0 W/m² 11,9 °C 13,4 °C 5,9 km/h (2 Bft)
13.10.2025 02:00 23,2 °C 13,3 °C 58 % 91 % 1026,1 hPa 0,4 l/m² 3,1 km/h (1 Bft) W-NW 0,00 h 0 W/m² 11,9 °C 13,3 °C 6,5 km/h (2 Bft)
13.10.2025 03:00 23,0 °C 12,9 °C 58 % 92 % 1026,0 hPa 0,2 l/m² 0,5 km/h (0 Bft) W-NW 0,00 h 0 W/m² 11,6 °C 12,9 °C 1,7 km/h (1 Bft)
13.10.2025 04:00 22,9 °C 12,6 °C 57 % 92 % 1026,0 hPa 0,0 l/m² 0,2 km/h (0 Bft) W-NW 0,00 h 0 W/m² 11,3 °C 12,6 °C 0,9 km/h (0 Bft)
13.10.2025 05:00 22,7 °C 12,3 °C 55 % 92 % 1025,9 hPa 0,0 l/m² 0,4 km/h (0 Bft) W-NW 0,00 h 0 W/m² 11,1 °C 12,3 °C 1,2 km/h (1 Bft)
13.10.2025 06:00 22,6 °C 12,2 °C 56 % 92 % 1026,0 hPa 0,0 l/m² 0,4 km/h (0 Bft) W-NW 0,00 h 0 W/m² 10,9 °C 12,2 °C 1,6 km/h (1 Bft)
13.10.2025 07:00 22,5 °C 12,1 °C 56 % 92 % 1026,0 hPa 0,0 l/m² 0,1 km/h (0 Bft) W-NW 0,00 h 14 W/m² 10,9 °C 12,1 °C 0,7 km/h (0 Bft)
13.10.2025 08:00 22,4 °C 12,3 °C 56 % 93 % 1026,3 hPa 0,0 l/m² 0,1 km/h (0 Bft) W-NW 0,53 h 51 W/m² 11,2 °C 12,3 °C 0,4 km/h (0 Bft)
13.10.2025 09:00 22,3 °C 12,9 °C 56 % 93 % 1026,6 hPa 0,0 l/m² 0,3 km/h (0 Bft) W 0,92 h 118 W/m² 11,8 °C 12,9 °C 1,0 km/h (0 Bft)
13.10.2025 10:00 22,3 °C 13,8 °C 56 % 92 % 1026,9 hPa 0,0 l/m² 3,7 km/h (1 Bft) N-NW 1,00 h 282 W/m² 12,6 °C 13,7 °C 6,3 km/h (2 Bft)
13.10.2025 11:00 22,3 °C 15,9 °C 57 % 81 % 1026,9 hPa 0,0 l/m² 5,1 km/h (1 Bft) NW 1,00 h 291 W/m² 12,7 °C 15,6 °C 9,6 km/h (2 Bft)
13.10.2025 12:00 22,3 °C 16,2 °C 57 % 77 % 1027,0 hPa 0,0 l/m² 7,2 km/h (2 Bft) NW 0,98 h 419 W/m² 12,1 °C 15,4 °C 13,2 km/h (3 Bft)
13.10.2025 13:00 22,3 °C 18,1 °C 57 % 68 % 1026,7 hPa 0,0 l/m² 6,6 km/h (2 Bft) N-NW 1,02 h 476 W/m² 12,2 °C 17,6 °C 10,9 km/h (2 Bft)
13.10.2025 14:00 22,3 °C 17,8 °C 57 % 69 % 1026,4 hPa 0,0 l/m² 7,8 km/h (2 Bft) N-NW 1,00 h 418 W/m² 12,0 °C 16,9 °C 11,9 km/h (2 Bft)
13.10.2025 15:00 22,3 °C 17,3 °C 58 % 68 % 1026,2 hPa 0,0 l/m² 7,7 km/h (2 Bft) N-NW 1,00 h 343 W/m² 11,5 °C 16,6 °C 12,2 km/h (2 Bft)
13.10.2025 16:00 22,3 °C 17,3 °C 58 % 68 % 1025,8 hPa 0,0 l/m² 6,2 km/h (2 Bft) N 1,00 h 223 W/m² 11,3 °C 17,0 °C 10,0 km/h (2 Bft)
13.10.2025 17:00 22,2 °C 16,3 °C 54 % 69 % 1025,9 hPa 0,0 l/m² 3,7 km/h (1 Bft) N-NO 0,48 h 63 W/m² 10,5 °C 16,2 °C 6,4 km/h (2 Bft)
13.10.2025 18:00 22,1 °C 14,5 °C 53 % 73 % 1026,0 hPa 0,0 l/m² 0,2 km/h (0 Bft) NO 0,00 h 10 W/m² 9,6 °C 14,5 °C 0,7 km/h (0 Bft)
13.10.2025 19:00 22,1 °C 11,4 °C 53 % 79 % 1026,1 hPa 0,0 l/m² 0,0 km/h (0 Bft) NO 0,00 h 0 W/m² 7,9 °C 11,4 °C 0,0 km/h (0 Bft)
13.10.2025 20:00 22,0 °C 9,3 °C 54 % 83 % 1026,1 hPa 0,0 l/m² 0,0 km/h (0 Bft) NO 0,00 h 0 W/m² 6,6 °C 9,3 °C 0,0 km/h (0 Bft)
13.10.2025 21:00 22,0 °C 8,0 °C 54 % 85 % 1026,1 hPa 0,0 l/m² 0,0 km/h (0 Bft) NO 0,00 h 0 W/m² 5,6 °C 8,0 °C 0,0 km/h (0 Bft)
13.10.2025 22:00 21,9 °C 7,1 °C 55 % 86 % 1026,2 hPa 0,0 l/m² 0,0 km/h (0 Bft) NO 0,00 h 0 W/m² 4,9 °C 7,1 °C 0,0 km/h (0 Bft)
13.10.2025 23:00 21,9 °C 6,5 °C 55 % 88 % 1026,2 hPa 0,0 l/m² 0,0 km/h (0 Bft) NO 0,00 h 0 W/m² 4,6 °C 6,5 °C 0,0 km/h (0 Bft)
14.10.2025 00:00 21,9 °C 6,1 °C 56 % 88 % 1026,1 hPa 0,0 l/m² 0,0 km/h (0 Bft) NO 0,00 h 0 W/m² 4,3 °C 6,1 °C 0,0 km/h (0 Bft)
14.10.2025 01:00 21,9 °C 5,6 °C 56 % 89 % 1025,9 hPa 0,0 l/m² 0,0 km/h (0 Bft) NO 0,00 h 0 W/m² 3,9 °C 5,6 °C 0,0 km/h (0 Bft)
14.10.2025 02:00 21,9 °C 5,0 °C 56 % 90 % 1025,7 hPa 0,2 l/m² 0,0 km/h (0 Bft) NO 0,00 h 0 W/m² 3,5 °C 5,0 °C 0,0 km/h (0 Bft)
14.10.2025 03:00 21,9 °C 4,5 °C 56 % 90 % 1025,2 hPa 0,0 l/m² 0,0 km/h (0 Bft) NO 0,00 h 0 W/m² 3,0 °C 4,5 °C 0,0 km/h (0 Bft)
14.10.2025 04:00 21,9 °C 4,0 °C 56 % 91 % 1025,1 hPa 0,0 l/m² 0,0 km/h (0 Bft) NO 0,00 h 0 W/m² 2,6 °C 4,0 °C 0,0 km/h (0 Bft)
14.10.2025 05:00 21,7 °C 3,8 °C 52 % 91 % 1024,8 hPa 0,0 l/m² 0,0 km/h (0 Bft) NO 0,00 h 0 W/m² 2,5 °C 3,8 °C 0,0 km/h (0 Bft)
14.10.2025 06:00 21,6 °C 3,8 °C 51 % 92 % 1024,5 hPa 0,0 l/m² 0,0 km/h (0 Bft) NO 0,00 h 0 W/m² 2,6 °C 3,8 °C 0,0 km/h (0 Bft)
14.10.2025 07:00 21,6 °C 5,2 °C 52 % 93 % 1024,2 hPa 0,0 l/m² 0,0 km/h (0 Bft) NO 0,00 h 10 W/m² 4,2 °C 5,2 °C 0,0 km/h (0 Bft)
14.10.2025 08:00 21,6 °C 6,7 °C 52 % 93 % 1024,4 hPa 0,0 l/m² 2,2 km/h (1 Bft) NO 0,23 h 44 W/m² 5,7 °C 6,7 °C 3,4 km/h (1 Bft)
14.10.2025 09:00 21,6 °C 8,3 °C 52 % 94 % 1024,4 hPa 0,0 l/m² 5,3 km/h (1 Bft) SW 0,38 h 61 W/m² 7,4 °C 8,1 °C 7,3 km/h (2 Bft)
14.10.2025 10:00 21,6 °C 9,6 °C 53 % 94 % 1024,7 hPa 0,0 l/m² 5,9 km/h (2 Bft) SW 1,00 h 90 W/m² 8,7 °C 9,3 °C 8,0 km/h (2 Bft)
14.10.2025 11:00 21,6 °C 11,0 °C 53 % 94 % 1024,4 hPa 0,0 l/m² 8,0 km/h (2 Bft) SW 1,00 h 116 W/m² 10,1 °C 9,9 °C 10,3 km/h (2 Bft)
14.10.2025 12:00 21,6 °C 12,0 °C 53 % 92 % 1024,1 hPa 0,0 l/m² 8,5 km/h (2 Bft) SW 1,00 h 90 W/m² 10,8 °C 10,6 °C 12,5 km/h (2 Bft)
14.10.2025 13:00 21,4 °C 12,8 °C 54 % 91 % 1023,9 hPa 0,0 l/m² 8,1 km/h (2 Bft) SW 0,73 h 76 W/m² 11,3 °C 11,7 °C 12,1 km/h (2 Bft)
14.10.2025 14:00 21,4 °C 12,7 °C 54 % 91 % 1023,6 hPa 0,0 l/m² 5,9 km/h (2 Bft) SW 0,53 h 56 W/m² 11,3 °C 12,3 °C 9,7 km/h (2 Bft)
14.10.2025 15:00 21,3 °C 12,9 °C 54 % 92 % 1023,5 hPa 0,0 l/m² 1,4 km/h (1 Bft) N 0,10 h 33 W/m² 11,6 °C 12,9 °C 2,5 km/h (1 Bft)
14.10.2025 16:00 21,3 °C 12,8 °C 54 % 92 % 1023,3 hPa 0,0 l/m² 2,8 km/h (1 Bft) W 0,10 h 34 W/m² 11,6 °C 12,7 °C 5,5 km/h (2 Bft)
14.10.2025 17:00 21,2 °C 12,6 °C 55 % 92 % 1023,4 hPa 0,0 l/m² 4,0 km/h (1 Bft) W-NW 0,00 h 28 W/m² 11,3 °C 12,5 °C 8,2 km/h (2 Bft)
14.10.2025 18:00 21,2 °C 12,3 °C 55 % 91 % 1023,3 hPa 0,0 l/m² 0,2 km/h (0 Bft) N 0,00 h 8 W/m² 10,8 °C 12,3 °C 0,8 km/h (0 Bft)
14.10.2025 19:00 21,3 °C 11,4 °C 56 % 91 % 1023,5 hPa 0,0 l/m² 0,0 km/h (0 Bft) N 0,00 h 0 W/m² 9,9 °C 11,4 °C 0,0 km/h (0 Bft)
14.10.2025 20:00 21,3 °C 10,7 °C 56 % 91 % 1023,6 hPa 0,0 l/m² 0,0 km/h (0 Bft) N 0,00 h 0 W/m² 9,3 °C 10,7 °C 0,1 km/h (0 Bft)
14.10.2025 21:00 21,3 °C 10,6 °C 56 % 91 % 1024,0 hPa 0,2 l/m² 0,0 km/h (0 Bft) N 0,00 h 0 W/m² 9,2 °C 10,6 °C 0,0 km/h (0 Bft)
14.10.2025 22:00 21,3 °C 10,6 °C 56 % 92 % 1024,4 hPa 0,0 l/m² 0,3 km/h (0 Bft) N 0,00 h 0 W/m² 9,4 °C 10,6 °C 0,7 km/h (0 Bft)
14.10.2025 23:00 21,2 °C 10,7 °C 56 % 92 % 1024,6 hPa 0,0 l/m² 0,0 km/h (0 Bft) W-SW 0,00 h 0 W/m² 9,4 °C 10,7 °C 0,0 km/h (0 Bft)
15.10.2025 00:00 21,2 °C 10,7 °C 56 % 93 % 1024,8 hPa 0,0 l/m² 0,6 km/h (0 Bft) W-SW 0,00 h 0 W/m² 9,6 °C 10,7 °C 2,4 km/h (1 Bft)
15.10.2025 01:00 21,2 °C 10,7 °C 56 % 93 % 1025,0 hPa 0,0 l/m² 0,4 km/h (0 Bft) W-SW 0,00 h 0 W/m² 9,6 °C 10,7 °C 1,7 km/h (1 Bft)
15.10.2025 02:00 21,1 °C 10,8 °C 56 % 93 % 1025,0 hPa 0,0 l/m² 0,2 km/h (0 Bft) W-SW 0,00 h 0 W/m² 9,7 °C 10,8 °C 0,7 km/h (0 Bft)
15.10.2025 03:00 21,1 °C 10,8 °C 56 % 93 % 1024,9 hPa 0,0 l/m² 0,1 km/h (0 Bft) W-SW 0,00 h 0 W/m² 9,7 °C 10,8 °C 0,3 km/h (0 Bft)
15.10.2025 04:00 21,1 °C 10,8 °C 56 % 93 % 1025,0 hPa 0,0 l/m² 0,2 km/h (0 Bft) W-SW 0,00 h 0 W/m² 9,7 °C 10,8 °C 0,7 km/h (0 Bft)
15.10.2025 05:00 21,2 °C 10,7 °C 56 % 93 % 1024,9 hPa 0,0 l/m² 0,3 km/h (0 Bft) W-SW 0,00 h 0 W/m² 9,6 °C 10,7 °C 1,0 km/h (0 Bft)
15.10.2025 06:00 21,1 °C 10,8 °C 55 % 94 % 1024,9 hPa 0,0 l/m² 0,7 km/h (0 Bft) W-SW 0,00 h 0 W/m² 9,9 °C 10,8 °C 2,2 km/h (1 Bft)
15.10.2025 07:00 21,1 °C 11,0 °C 55 % 94 % 1025,1 hPa 0,0 l/m² 0,3 km/h (0 Bft) W-NW 0,00 h 9 W/m² 10,1 °C 11,0 °C 1,5 km/h (1 Bft)
15.10.2025 08:00 21,0 °C 11,1 °C 55 % 94 % 1025,5 hPa 0,0 l/m² 0,7 km/h (0 Bft) W-NW 0,00 h 31 W/m² 10,1 °C 11,1 °C 1,8 km/h (1 Bft)
15.10.2025 09:00 21,0 °C 11,4 °C 55 % 94 % 1025,7 hPa 0,2 l/m² 1,1 km/h (1 Bft) W-NW 0,40 h 53 W/m² 10,5 °C 11,4 °C 3,3 km/h (1 Bft)
15.10.2025 10:00 21,1 °C 12,1 °C 55 % 94 % 1025,8 hPa 0,0 l/m² 1,4 km/h (1 Bft) W-NW 1,00 h 143 W/m² 11,2 °C 12,1 °C 3,3 km/h (1 Bft)
15.10.2025 11:00 21,1 °C 12,9 °C 56 % 93 % 1025,9 hPa 0,0 l/m² 3,8 km/h (1 Bft) NW 1,00 h 184 W/m² 11,8 °C 12,9 °C 7,0 km/h (2 Bft)
15.10.2025 12:00 21,1 °C 13,6 °C 56 % 87 % 1025,9 hPa 0,0 l/m² 4,9 km/h (1 Bft) W 1,00 h 161 W/m² 11,5 °C 13,4 °C 9,1 km/h (2 Bft)
15.10.2025 13:00 21,1 °C 14,2 °C 56 % 84 % 1025,5 hPa 0,0 l/m² 5,2 km/h (1 Bft) W 1,00 h 234 W/m² 11,5 °C 14,1 °C 9,3 km/h (2 Bft)
15.10.2025 14:00 21,1 °C 15,3 °C 56 % 79 % 1025,1 hPa 0,0 l/m² 5,4 km/h (1 Bft) W-NW 1,00 h 215 W/m² 11,7 °C 14,9 °C 9,5 km/h (2 Bft)
15.10.2025 15:00 21,0 °C 14,8 °C 56 % 79 % 1024,9 hPa 0,0 l/m² 2,7 km/h (1 Bft) W 1,00 h 95 W/m² 11,2 °C 14,8 °C 5,5 km/h (2 Bft)
15.10.2025 16:00 21,0 °C 14,5 °C 56 % 80 % 1024,8 hPa 0,0 l/m² 4,5 km/h (1 Bft) W-NW 1,00 h 90 W/m² 11,0 °C 14,4 °C 9,2 km/h (2 Bft)
15.10.2025 17:00 21,1 °C 14,0 °C 56 % 81 % 1024,6 hPa 0,0 l/m² 3,7 km/h (1 Bft) W 0,27 h 38 W/m² 10,7 °C 13,9 °C 7,3 km/h (2 Bft)
15.10.2025 18:00 21,1 °C 13,1 °C 56 % 82 % 1024,6 hPa 0,0 l/m² 0,4 km/h (0 Bft) W 0,00 h 10 W/m² 10,0 °C 13,1 °C 0,8 km/h (0 Bft)
15.10.2025 19:00 21,1 °C 11,3 °C 56 % 83 % 1024,7 hPa 0,0 l/m² 0,0 km/h (0 Bft) W 0,00 h 0 W/m² 8,5 °C 11,3 °C 0,0 km/h (0 Bft)
15.10.2025 20:00 21,1 °C 9,5 °C 56 % 85 % 1024,6 hPa 0,0 l/m² 0,0 km/h (0 Bft) W 0,00 h 0 W/m² 7,2 °C 9,5 °C 0,0 km/h (0 Bft)
15.10.2025 21:00 21,1 °C 8,4 °C 56 % 88 % 1024,7 hPa 0,0 l/m² 0,0 km/h (0 Bft) W 0,00 h 0 W/m² 6,6 °C 8,4 °C 0,0 km/h (0 Bft)
15.10.2025 22:00 21,0 °C 8,9 °C 56 % 91 % 1024,6 hPa 0,0 l/m² 0,0 km/h (0 Bft) W 0,00 h 0 W/m² 7,5 °C 8,9 °C 0,0 km/h (0 Bft)
15.10.2025 23:00 20,9 °C 9,6 °C 56 % 92 % 1024,4 hPa 0,0 l/m² 0,0 km/h (0 Bft) W 0,00 h 0 W/m² 8,4 °C 9,6 °C 0,0 km/h (0 Bft)
16.10.2025 00:00 21,0 °C 10,1 °C 56 % 93 % 1024,1 hPa 0,0 l/m² 0,0 km/h (0 Bft) W 0,00 h 0 W/m² 9,1 °C 10,1 °C 0,0 km/h (0 Bft)
16.10.2025 01:00 21,0 °C 10,3 °C 56 % 93 % 1024,0 hPa 0,0 l/m² 0,3 km/h (0 Bft) W 0,00 h 0 W/m² 9,3 °C 10,3 °C 0,6 km/h (0 Bft)
16.10.2025 02:00 20,9 °C 10,6 °C 56 % 93 % 1023,7 hPa 0,0 l/m² 3,9 km/h (1 Bft) SW 0,00 h 0 W/m² 9,5 °C 10,6 °C 6,1 km/h (2 Bft)
16.10.2025 03:00 20,9 °C 10,6 °C 56 % 93 % 1023,1 hPa 0,4 l/m² 2,7 km/h (1 Bft) SW 0,00 h 0 W/m² 9,5 °C 10,6 °C 4,1 km/h (1 Bft)
16.10.2025 04:00 20,8 °C 10,7 °C 56 % 93 % 1022,7 hPa 0,0 l/m² 1,6 km/h (1 Bft) SW 0,00 h 0 W/m² 9,6 °C 10,6 °C 2,5 km/h (1 Bft)
16.10.2025 05:00 20,8 °C 10,7 °C 56 % 93 % 1022,4 hPa 0,2 l/m² 2,8 km/h (1 Bft) W-SW 0,00 h 0 W/m² 9,6 °C 10,7 °C 4,5 km/h (1 Bft)
16.10.2025 06:00 20,7 °C 10,4 °C 56 % 93 % 1022,2 hPa 0,0 l/m² 0,5 km/h (0 Bft) W-SW 0,00 h 0 W/m² 9,3 °C 10,4 °C 1,1 km/h (1 Bft)
16.10.2025 07:00 20,7 °C 10,2 °C 56 % 93 % 1022,1 hPa 0,0 l/m² 4,4 km/h (1 Bft) S-SW 0,00 h 7 W/m² 9,1 °C 10,2 °C 5,7 km/h (2 Bft)
16.10.2025 08:00 20,8 °C 10,3 °C 56 % 94 % 1022,2 hPa 0,0 l/m² 4,6 km/h (1 Bft) S-SW 0,17 h 36 W/m² 9,3 °C 10,2 °C 5,8 km/h (2 Bft)
16.10.2025 09:00 20,8 °C 11,0 °C 56 % 94 % 1022,4 hPa 0,0 l/m² 4,7 km/h (1 Bft) W-SW 0,93 h 122 W/m² 10,1 °C 10,9 °C 7,4 km/h (2 Bft)
16.10.2025 10:00 20,8 °C 12,2 °C 56 % 93 % 1022,4 hPa 0,0 l/m² 6,8 km/h (2 Bft) W-SW 1,00 h 199 W/m² 11,2 °C 11,7 °C 10,1 km/h (2 Bft)
16.10.2025 11:00 20,8 °C 13,2 °C 56 % 88 % 1022,5 hPa 0,0 l/m² 6,8 km/h (2 Bft) W 1,00 h 196 W/m² 11,2 °C 12,6 °C 11,2 km/h (2 Bft)
16.10.2025 12:00 20,7 °C 14,1 °C 56 % 80 % 1022,2 hPa 0,0 l/m² 8,7 km/h (2 Bft) W 1,00 h 209 W/m² 10,7 °C 12,7 °C 13,8 km/h (3 Bft)
16.10.2025 13:00 20,7 °C 14,0 °C 56 % 82 % 1021,9 hPa 0,2 l/m² 7,4 km/h (2 Bft) W 1,00 h 150 W/m² 10,9 °C 13,2 °C 11,4 km/h (2 Bft)
16.10.2025 14:00 20,8 °C 14,0 °C 56 % 84 % 1021,4 hPa 0,0 l/m² 8,4 km/h (2 Bft) SW 1,00 h 207 W/m² 11,3 °C 12,8 °C 11,7 km/h (2 Bft)
16.10.2025 15:00 20,8 °C 14,9 °C 56 % 77 % 1021,2 hPa 0,0 l/m² 7,3 km/h (2 Bft) W 1,00 h 123 W/m² 10,8 °C 14,1 °C 12,7 km/h (3 Bft)
16.10.2025 16:00 20,8 °C 14,4 °C 57 % 78 % 1021,2 hPa 0,0 l/m² 5,8 km/h (2 Bft) W 0,80 h 71 W/m² 10,6 °C 14,0 °C 11,8 km/h (2 Bft)
16.10.2025 17:00 20,8 °C 13,7 °C 57 % 80 % 1021,2 hPa 0,0 l/m² 5,8 km/h (2 Bft) W 0,00 h 25 W/m² 10,3 °C 13,4 °C 11,1 km/h (2 Bft)
16.10.2025 18:00 20,8 °C 13,0 °C 57 % 83 % 1021,4 hPa 0,0 l/m² 5,6 km/h (2 Bft) W 0,00 h 5 W/m² 10,2 °C 12,8 °C 9,8 km/h (2 Bft)
16.10.2025 19:00 20,7 °C 12,3 °C 57 % 85 % 1021,4 hPa 0,0 l/m² 4,3 km/h (1 Bft) W-SW 0,00 h 0 W/m² 9,9 °C 12,3 °C 6,6 km/h (2 Bft)
16.10.2025 20:00 20,7 °C 11,3 °C 57 % 86 % 1021,4 hPa 0,0 l/m² 3,6 km/h (1 Bft) W-SW 0,00 h 0 W/m² 9,1 °C 11,3 °C 5,2 km/h (1 Bft)
16.10.2025 21:00 20,7 °C 10,9 °C 57 % 89 % 1021,7 hPa 0,0 l/m² 2,5 km/h (1 Bft) W-SW 0,00 h 0 W/m² 9,2 °C 10,9 °C 3,6 km/h (1 Bft)
16.10.2025 22:00 20,8 °C 10,9 °C 57 % 90 % 1021,8 hPa 0,0 l/m² 3,7 km/h (1 Bft) W-SW 0,00 h 0 W/m² 9,4 °C 10,9 °C 5,4 km/h (1 Bft)
16.10.2025 23:00 20,8 °C 11,3 °C 57 % 91 % 1021,7 hPa 0,0 l/m² 4,6 km/h (1 Bft) W-SW 0,00 h 0 W/m² 9,9 °C 11,2 °C 7,3 km/h (2 Bft)
17.10.2025 00:00 20,8 °C 11,4 °C 57 % 91 % 1021,6 hPa 0,0 l/m² 5,1 km/h (1 Bft) W-SW 0,00 h 0 W/m² 10,0 °C 11,4 °C 7,4 km/h (2 Bft)
17.10.2025 01:00 20,8 °C 10,8 °C 57 % 91 % 1021,4 hPa 0,0 l/m² 2,2 km/h (1 Bft) W 0,00 h 0 W/m² 9,4 °C 10,8 °C 4,0 km/h (1 Bft)
17.10.2025 02:00 20,7 °C 10,3 °C 57 % 91 % 1021,4 hPa 0,0 l/m² 1,8 km/h (1 Bft) SW 0,00 h 0 W/m² 8,9 °C 10,3 °C 4,7 km/h (1 Bft)
17.10.2025 03:00 20,7 °C 10,8 °C 57 % 92 % 1021,1 hPa 0,0 l/m² 5,7 km/h (2 Bft) W-NW 0,00 h 0 W/m² 9,5 °C 10,6 °C 11,8 km/h (2 Bft)
17.10.2025 04:00 20,7 °C 10,9 °C 57 % 91 % 1021,0 hPa 0,0 l/m² 5,8 km/h (2 Bft) W 0,00 h 0 W/m² 9,5 °C 10,3 °C 10,5 km/h (2 Bft)
17.10.2025 05:00 20,7 °C 10,7 °C 56 % 91 % 1021,0 hPa 0,0 l/m² 3,1 km/h (1 Bft) W 0,00 h 0 W/m² 9,3 °C 10,7 °C 5,5 km/h (2 Bft)
17.10.2025 06:00 20,7 °C 10,0 °C 56 % 90 % 1021,0 hPa 0,0 l/m² 2,5 km/h (1 Bft) W-SW 0,00 h 0 W/m² 8,5 °C 10,0 °C 3,9 km/h (1 Bft)
17.10.2025 07:00 20,7 °C 9,8 °C 56 % 91 % 1021,1 hPa 0,0 l/m² 1,1 km/h (0 Bft) W-SW 0,00 h 8 W/m² 8,4 °C 9,8 °C 2,3 km/h (1 Bft)
17.10.2025 08:00 20,6 °C 9,7 °C 56 % 91 % 1021,4 hPa 0,0 l/m² 1,5 km/h (1 Bft) W-SW 0,32 h 50 W/m² 8,3 °C 9,7 °C 3,0 km/h (1 Bft)
17.10.2025 09:00 20,6 °C 10,9 °C 56 % 92 % 1021,5 hPa 0,0 l/m² 5,4 km/h (2 Bft) W 0,98 h 115 W/m² 9,6 °C 10,1 °C 9,1 km/h (2 Bft)
17.10.2025 10:00 20,7 °C 11,9 °C 56 % 88 % 1021,6 hPa 0,0 l/m² 10,8 km/h (2 Bft) W 1,00 h 125 W/m² 10,0 °C 9,3 °C 16,9 km/h (3 Bft)
17.10.2025 11:00 20,7 °C 12,6 °C 56 % 84 % 1021,7 hPa 0,0 l/m² 9,9 km/h (2 Bft) W 1,02 h 221 W/m² 10,0 °C 10,7 °C 16,6 km/h (3 Bft)
17.10.2025 12:00 20,7 °C 14,4 °C 56 % 77 % 1021,4 hPa 0,0 l/m² 10,9 km/h (2 Bft) W 1,00 h 312 W/m² 10,3 °C 12,2 °C 16,4 km/h (3 Bft)
17.10.2025 13:00 20,7 °C 14,6 °C 56 % 74 % 1021,0 hPa 0,0 l/m² 13,5 km/h (3 Bft) W 1,00 h 211 W/m² 10,0 °C 11,3 °C 19,8 km/h (3 Bft)
17.10.2025 14:00 20,7 °C 13,7 °C 56 % 77 % 1020,9 hPa 0,0 l/m² 7,8 km/h (2 Bft) W 1,00 h 98 W/m² 9,9 °C 12,6 °C 13,5 km/h (3 Bft)
17.10.2025 15:00 20,7 °C 13,3 °C 56 % 79 % 1020,8 hPa 0,0 l/m² 7,2 km/h (2 Bft) W 1,00 h 82 W/m² 9,7 °C 12,4 °C 12,0 km/h (2 Bft)
17.10.2025 16:00 20,8 °C 13,2 °C 55 % 80 % 1020,8 hPa 0,0 l/m² 6,2 km/h (2 Bft) W 0,62 h 62 W/m² 9,8 °C 12,6 °C 11,0 km/h (2 Bft)
17.10.2025 17:00 20,8 °C 12,4 °C 56 % 83 % 1020,7 hPa 0,0 l/m² 7,4 km/h (2 Bft) W 0,12 h 29 W/m² 9,6 °C 11,2 °C 11,7 km/h (2 Bft)
17.10.2025 18:00 20,8 °C 11,8 °C 56 % 85 % 1021,0 hPa 0,0 l/m² 3,3 km/h (1 Bft) W 0,00 h 0 W/m² 9,4 °C 11,4 °C 5,9 km/h (2 Bft)
17.10.2025 19:00 20,7 °C 11,0 °C 57 % 87 % 1021,2 hPa 0,0 l/m² 1,3 km/h (1 Bft) W 0,00 h 0 W/m² 8,9 °C 11,0 °C 2,8 km/h (1 Bft)
17.10.2025 20:00 20,7 °C 10,7 °C 57 % 88 % 1021,4 hPa 0,0 l/m² 1,4 km/h (1 Bft) W 0,00 h 0 W/m² 8,9 °C 10,7 °C 3,2 km/h (1 Bft)
17.10.2025 21:00 20,7 °C 10,7 °C 57 % 89 % 1021,6 hPa 0,2 l/m² 4,0 km/h (1 Bft) W 0,00 h 0 W/m² 8,9 °C 10,2 °C 7,7 km/h (2 Bft)
17.10.2025 22:00 20,7 °C 9,9 °C 56 % 89 % 1021,9 hPa 0,2 l/m² 3,3 km/h (1 Bft) W-NW 0,00 h 0 W/m² 8,1 °C 9,9 °C 6,7 km/h (2 Bft)
17.10.2025 23:00 20,7 °C 9,0 °C 56 % 88 % 1022,1 hPa 0,0 l/m² 2,6 km/h (1 Bft) W 0,00 h 0 W/m² 7,2 °C 9,0 °C 5,2 km/h (1 Bft)
18.10.2025 00:00 20,7 °C 8,3 °C 56 % 89 % 1022,4 hPa 0,0 l/m² 3,5 km/h (1 Bft) W 0,00 h 0 W/m² 6,7 °C 8,3 °C 7,0 km/h (2 Bft)
18.10.2025 01:00 20,7 °C 8,7 °C 57 % 90 % 1023,2 hPa 0,0 l/m² 6,1 km/h (2 Bft) W-NW 0,00 h 0 W/m² 7,2 °C 8,2 °C 13,8 km/h (3 Bft)
18.10.2025 02:00 20,7 °C 8,9 °C 57 % 89 % 1023,6 hPa 0,0 l/m² 5,1 km/h (1 Bft) W 0,00 h 0 W/m² 7,2 °C 8,6 °C 12,5 km/h (2 Bft)
18.10.2025 03:00 20,7 °C 8,3 °C 57 % 86 % 1024,0 hPa 0,0 l/m² 6,3 km/h (2 Bft) NW 0,00 h 0 W/m² 6,1 °C 7,5 °C 12,0 km/h (2 Bft)
18.10.2025 04:00 20,7 °C 6,5 °C 57 % 85 % 1024,6 hPa 0,0 l/m² 2,0 km/h (1 Bft) W-NW 0,00 h 0 W/m² 4,2 °C 6,5 °C 4,6 km/h (1 Bft)
18.10.2025 05:00 20,7 °C 4,9 °C 57 % 86 % 1025,2 hPa 0,0 l/m² 2,3 km/h (1 Bft) W-NW 0,00 h 0 W/m² 2,7 °C 4,9 °C 4,6 km/h (1 Bft)
18.10.2025 06:00 20,7 °C 4,4 °C 57 % 89 % 1025,9 hPa 0,0 l/m² 4,3 km/h (1 Bft) W-NW 0,00 h 0 W/m² 2,7 °C 4,4 °C 8,6 km/h (2 Bft)
18.10.2025 07:00 20,6 °C 3,9 °C 57 % 89 % 1026,5 hPa 0,0 l/m² 3,4 km/h (1 Bft) NW 0,00 h 9 W/m² 2,3 °C 3,9 °C 6,7 km/h (2 Bft)
18.10.2025 08:00 20,8 °C 4,3 °C 57 % 90 % 1027,2 hPa 0,0 l/m² 4,0 km/h (1 Bft) W-NW 0,63 h 74 W/m² 2,9 °C 4,2 °C 8,0 km/h (2 Bft)
18.10.2025 09:00 21,1 °C 6,7 °C 58 % 89 % 1028,0 hPa 0,0 l/m² 6,5 km/h (2 Bft) NW 1,00 h 236 W/m² 5,1 °C 6,2 °C 11,7 km/h (2 Bft)
18.10.2025 10:00 21,1 °C 9,2 °C 53 % 80 % 1028,4 hPa 0,0 l/m² 6,2 km/h (2 Bft) N-NW 1,00 h 369 W/m² 6,0 °C 8,7 °C 10,1 km/h (2 Bft)
18.10.2025 11:00 21,1 °C 11,2 °C 51 % 70 % 1028,4 hPa 0,0 l/m² 5,4 km/h (2 Bft) N 1,00 h 473 W/m² 5,8 °C 10,9 °C 9,2 km/h (2 Bft)
18.10.2025 12:00 21,0 °C 12,6 °C 51 % 61 % 1028,5 hPa 0,0 l/m² 5,6 km/h (2 Bft) NW 1,00 h 527 W/m² 5,1 °C 12,2 °C 9,4 km/h (2 Bft)
18.10.2025 13:00 21,2 °C 13,2 °C 55 % 57 % 1028,3 hPa 0,0 l/m² 5,3 km/h (1 Bft) N-NW 1,00 h 534 W/m² 4,9 °C 12,9 °C 9,0 km/h (2 Bft)
18.10.2025 14:00 21,1 °C 13,7 °C 50 % 54 % 1028,0 hPa 0,0 l/m² 4,5 km/h (1 Bft) N-NW 0,97 h 454 W/m² 4,5 °C 13,4 °C 7,8 km/h (2 Bft)
18.10.2025 15:00 20,9 °C 13,8 °C 49 % 51 % 1027,8 hPa 0,0 l/m² 3,9 km/h (1 Bft) W-NW 1,00 h 367 W/m² 3,8 °C 13,7 °C 6,5 km/h (2 Bft)
18.10.2025 16:00 21,2 °C 13,4 °C 50 % 51 % 1027,7 hPa 0,0 l/m² 4,8 km/h (1 Bft) N-NO 1,00 h 223 W/m² 3,4 °C 13,2 °C 7,5 km/h (2 Bft)
18.10.2025 17:00 21,2 °C 12,5 °C 50 % 53 % 1027,6 hPa 0,0 l/m² 2,4 km/h (1 Bft) N-NO 0,25 h 45 W/m² 3,1 °C 12,5 °C 4,3 km/h (1 Bft)
18.10.2025 18:00 21,0 °C 9,5 °C 51 % 63 % 1027,7 hPa 0,0 l/m² 0,4 km/h (0 Bft) N-NO 0,00 h 6 W/m² 2,7 °C 9,5 °C 0,8 km/h (0 Bft)
18.10.2025 19:00 21,0 °C 5,8 °C 52 % 74 % 1027,9 hPa 0,0 l/m² 0,1 km/h (0 Bft) N-NO 0,00 h 0 W/m² 1,6 °C 5,8 °C 0,1 km/h (0 Bft)
18.10.2025 20:00 21,2 °C 3,8 °C 54 % 79 % 1027,9 hPa 0,0 l/m² 0,2 km/h (0 Bft) N-NO 0,00 h 0 W/m² 0,5 °C 3,8 °C 0,5 km/h (0 Bft)
18.10.2025 21:00 21,4 °C 2,4 °C 55 % 81 % 1027,8 hPa 0,0 l/m² 0,0 km/h (0 Bft) N-NO 0,00 h 0 W/m² -0,4 °C 2,4 °C 0,0 km/h (0 Bft)
18.10.2025 22:00 21,4 °C 1,4 °C 55 % 83 % 1027,5 hPa 0,0 l/m² 0,0 km/h (0 Bft) N-NO 0,00 h 0 W/m² -1,1 °C 1,4 °C 0,0 km/h (0 Bft)
18.10.2025 23:00 21,2 °C 0,7 °C 54 % 85 % 1027,3 hPa 0,0 l/m² 0,0 km/h (0 Bft) N-NO 0,00 h 0 W/m² -1,4 °C 0,7 °C 0,0 km/h (0 Bft)
19.10.2025 00:00 21,2 °C 0,1 °C 54 % 87 % 1027,0 hPa 0,0 l/m² 0,0 km/h (0 Bft) N-NO 0,00 h 0 W/m² -1,9 °C 0,1 °C 0,0 km/h (0 Bft)
19.10.2025 01:00 21,3 °C -0,3 °C 54 % 87 % 1026,6 hPa 0,0 l/m² 0,0 km/h (0 Bft) N-NO 0,00 h 0 W/m² -2,2 °C -0,3 °C 0,0 km/h (0 Bft)
19.10.2025 02:00 21,3 °C -0,8 °C 54 % 88 % 1026,0 hPa 0,0 l/m² 0,0 km/h (0 Bft) N-NO 0,00 h 0 W/m² -2,5 °C -0,8 °C 0,0 km/h (0 Bft)
19.10.2025 03:00 21,4 °C -1,1 °C 54 % 88 % 1025,3 hPa 0,0 l/m² 0,0 km/h (0 Bft) N-NO 0,00 h 0 W/m² -2,7 °C -1,1 °C 0,0 km/h (0 Bft)
19.10.2025 04:00 21,4 °C -1,1 °C 54 % 89 % 1024,7 hPa 0,0 l/m² 0,1 km/h (0 Bft) N-NW 0,00 h 0 W/m² -2,6 °C -1,1 °C 0,3 km/h (0 Bft)
19.10.2025 05:00 21,4 °C -0,9 °C 54 % 90 % 1024,3 hPa 0,0 l/m² 0,0 km/h (0 Bft) N-NW 0,00 h 0 W/m² -2,3 °C -0,9 °C 0,0 km/h (0 Bft)
19.10.2025 06:00 21,5 °C -0,7 °C 54 % 91 % 1024,0 hPa 0,0 l/m² 0,0 km/h (0 Bft) N-NW 0,00 h 0 W/m² -2,0 °C -0,7 °C 0,2 km/h (0 Bft)
19.10.2025 07:00 21,5 °C -0,2 °C 54 % 91 % 1023,6 hPa 0,0 l/m² 0,9 km/h (0 Bft) O-NO 0,00 h 5 W/m² -1,5 °C -0,2 °C 2,2 km/h (1 Bft)
19.10.2025 08:00 21,6 °C 0,4 °C 54 % 92 % 1023,4 hPa 0,0 l/m² 1,8 km/h (1 Bft) O-NO 0,20 h 31 W/m² -0,8 °C 0,4 °C 3,7 km/h (1 Bft)
19.10.2025 09:00 21,8 °C 2,0 °C 55 % 93 % 1023,1 hPa 0,2 l/m² 3,4 km/h (1 Bft) O-NO 0,98 h 154 W/m² 1,0 °C 2,0 °C 7,1 km/h (2 Bft)
19.10.2025 10:00 21,8 °C 3,9 °C 54 % 93 % 1022,7 hPa 0,0 l/m² 5,1 km/h (1 Bft) O-NO 1,00 h 189 W/m² 2,8 °C 3,6 °C 8,8 km/h (2 Bft)
19.10.2025 11:00 21,8 °C 6,4 °C 53 % 87 % 1022,0 hPa 0,0 l/m² 8,3 km/h (2 Bft) O 1,02 h 291 W/m² 4,3 °C 4,9 °C 11,9 km/h (2 Bft)
19.10.2025 12:00 21,7 °C 8,7 °C 53 % 75 % 1021,1 hPa 0,0 l/m² 8,9 km/h (2 Bft) O 0,98 h 390 W/m² 4,5 °C 6,8 °C 12,8 km/h (3 Bft)
19.10.2025 13:00 21,7 °C 9,7 °C 52 % 69 % 1020,1 hPa 0,0 l/m² 11,1 km/h (2 Bft) O 1,00 h 320 W/m² 4,2 °C 6,7 °C 15,2 km/h (3 Bft)
19.10.2025 14:00 21,6 °C 9,9 °C 54 % 67 % 1018,8 hPa 0,0 l/m² 13,0 km/h (3 Bft) O 1,00 h 285 W/m² 4,0 °C 5,9 °C 17,4 km/h (3 Bft)
19.10.2025 15:00 21,6 °C 10,9 °C 54 % 62 % 1017,8 hPa 0,0 l/m² 14,6 km/h (3 Bft) O 1,02 h 270 W/m² 4,0 °C 6,4 °C 18,7 km/h (3 Bft)
19.10.2025 16:00 21,3 °C 10,0 °C 48 % 67 % 1016,6 hPa 0,0 l/m² 11,5 km/h (2 Bft) O 1,00 h 114 W/m² 4,2 °C 6,8 °C 15,2 km/h (3 Bft)
19.10.2025 17:00 21,0 °C 9,4 °C 47 % 72 % 1015,6 hPa 0,0 l/m² 9,9 km/h (2 Bft) O 0,23 h 34 W/m² 4,5 °C 7,0 °C 13,2 km/h (3 Bft)
19.10.2025 18:00 20,9 °C 7,7 °C 50 % 78 % 1015,2 hPa 0,0 l/m² 8,8 km/h (2 Bft) O 0,00 h 5 W/m² 4,0 °C 5,9 °C 12,0 km/h (2 Bft)
19.10.2025 19:00 21,1 °C 6,4 °C 53 % 79 % 1014,9 hPa 0,0 l/m² 11,1 km/h (2 Bft) O 0,00 h 0 W/m² 3,1 °C 3,0 °C 14,0 km/h (3 Bft)
19.10.2025 20:00 21,4 °C 5,6 °C 56 % 80 % 1014,3 hPa 0,0 l/m² 9,1 km/h (2 Bft) O-NO 0,00 h 0 W/m² 2,4 °C 3,5 °C 12,4 km/h (2 Bft)
19.10.2025 21:00 21,8 °C 4,9 °C 58 % 81 % 1013,8 hPa 0,0 l/m² 9,8 km/h (2 Bft) O-NO 0,00 h 0 W/m² 2,0 °C 2,1 °C 13,6 km/h (3 Bft)
19.10.2025 22:00 21,7 °C 4,4 °C 56 % 82 % 1013,5 hPa 0,0 l/m² 3,7 km/h (1 Bft) O-NO 0,00 h 0 W/m² 1,7 °C 4,4 °C 6,4 km/h (2 Bft)
19.10.2025 23:00 21,5 °C 4,3 °C 56 % 82 % 1012,9 hPa 0,0 l/m² 1,8 km/h (1 Bft) O-NO 0,00 h 0 W/m² 1,5 °C 4,3 °C 3,4 km/h (1 Bft)
Min-Datum _ 18.10.25 19.10.25 19.10.25 18.10.25 19.10.25 - 19.10.25 - - - 19.10.25 19.10.25 19.10.25
_ Min-Zeit 07:00 03:52 17:01 16:14 23:59 - 23:19 - - - 03:20 03:52 23:26
Minimum _ 20,6 °C -1,2 °C 46 % 48 % 1012,5 hPa - 0,0 km/h (0 Bft) - - - -2,8 °C -1,2 °C 0,0 km/h (0 Bft)
Max-Datum _ 13.10.25 13.10.25 19.10.25 14.10.25 18.10.25 16.10.25 17.10.25 - 13.10.25 13.10.25 13.10.25 13.10.25 17.10.25
_ Max-Zeit 00:00 13:46 21:03 11:18 13:17 03:35 21:49 - 12:07 12:29 11:13 13:47 21:50
Maximum _ 23,6 °C 18,7 °C 60 % 95 % 1028,6 hPa 0,4 l/m² 19,9 km/h
W (4 Bft)
- 0,12 h 668 W/m² 13,2 °C 18,7 °C 33,8 km/h
W (5 Bft)
Durchschnitt _ 21,3 °C 9,9 °C 55 % 85 % 1023,7 hPa #2,6 l/m² 3,5 km/h (1 Bft) W #54:55 h 75 W/m² 7,4 °C 9,5 °C 5,9 km/h (2 Bft)
© 2009 Mathias Hoßbach